KLVK Airport (Livermore Muni) Information

FAA: LVK - ICAO: KLVK

KLVK Airport Location

State California
County Alameda
City Livermore
KLVK Airport is 3 miles west of Livermore, CA.
Latitude 37-41-36.2000N
Longitude 121-49-13.3000W
Elevation 399ft

KLVK Airport METARs

METAR KLVK 181353Z AUTO 10003KT 10SM CLR 04/03 A3011 RMK AO2 SLP194 T00440033
Altimeter 30.11"
Temperature 4.4°C (39.9°F)
Wind 100° at 3KT
Clouds Skies are clear.
Visibility 10.0mi
Time observed: 2022-01-18T13:53:00Z

KLVK Airport Details

Status Operational
Activation December 1965
Ownership Public
Usage Public
Chart SAN FRANCISCO
ATC on-site Yes
Beacon schedule sunset-sunrise
Beacon color clear green

KLVK Airport Contacts

Owner CITY OF LIVERMORE
Owner address 1052 SOUTH LIVERMORE AVE, LIVERMORE, CA 94550
Owner phone 925-960-4200
Manager RICHARD ALEXANDER
Manager address 4080 CLARK RD, LIVE OAK, CA 95953
Manager phone 530-695-2294

KLVK Airport (Livermore Muni) Radio Frequencies

KLVK (Airport) Radio Frequencies

UNICOM 122.95
Common traffic advisory frequency (CTAF) 118.1